Vista, California
Current Conditions -  °F | °C
As of 10:53 PM on Wednesday 26 Nov 2014 (Local Time) from KCRQ Reporting Station
Clear Clear  
Wind Chill: 62°   Ceiling: Unl
Heat Index: 62°   Visibility: 10mi
Dew Point: 33°   Wind: 5mph
Humidity: 34%   Direction: 80°E
Pressure: 30.11"   Gusts: NA
Location:  33.2°N, 117.23°W
Report Text: KCRQ 270653Z AUTO 08004KT 10SM CLR 17/01 A3011 RMK AO2 SLP193 T01670006 TSNO
Loading
Personal Weather Stations






























Interactive Weather Map New forecast layout! Learn more

10-Day Weather Forecast

Advertisements
Track Severe Weather on mobile